createdAt,value
2018-02-12T00:00:40.881Z,3.45
2018-02-12T00:03:07.021Z,3.44
2018-02-12T00:05:33.204Z,3.42
2018-02-12T00:07:59.371Z,3.42
2018-02-12T00:10:25.514Z,3.41
2018-02-12T00:12:51.688Z,3.40
2018-02-12T00:15:17.824Z,3.44
2018-02-12T00:17:44.103Z,3.48
2018-02-12T00:20:10.200Z,3.52
2018-02-12T00:22:36.330Z,3.54
2018-02-12T00:25:02.498Z,3.53
2018-02-12T00:27:28.722Z,3.53
2018-02-12T00:29:54.898Z,3.51
2018-02-12T00:32:21.055Z,3.51
2018-02-12T00:34:47.253Z,3.54
2018-02-12T00:37:13.422Z,3.55
2018-02-12T00:39:39.618Z,3.56
2018-02-12T00:42:05.927Z,3.55
2018-02-12T00:44:32.043Z,3.56
2018-02-12T00:46:58.250Z,3.58
2018-02-12T00:49:24.396Z,3.57
2018-02-12T00:51:50.674Z,3.56
2018-02-12T00:54:16.862Z,3.52
2018-02-12T00:56:43.060Z,3.51
2018-02-12T00:59:09.315Z,3.53
2018-02-12T01:01:35.492Z,3.52
2018-02-12T01:04:02.435Z,3.51
2018-02-12T01:06:28.628Z,3.51
2018-02-12T01:08:54.834Z,3.50
2018-02-12T01:11:20.976Z,3.47
2018-02-12T01:13:47.165Z,3.48
2018-02-12T01:16:13.373Z,3.50
2018-02-12T01:18:39.582Z,3.49
2018-02-12T01:21:05.755Z,3.52
2018-02-12T01:23:31.942Z,3.50
2018-02-12T01:25:58.081Z,3.46
2018-02-12T01:28:24.350Z,3.46
2018-02-12T01:30:50.520Z,3.47
2018-02-12T01:33:16.680Z,3.45
2018-02-12T01:35:42.819Z,3.47
2018-02-12T01:38:09.052Z,3.49
2018-02-12T01:40:35.233Z,3.46
2018-02-12T01:43:01.401Z,3.44
2018-02-12T01:45:27.568Z,3.44
2018-02-12T01:47:53.777Z,3.44
2018-02-12T01:50:20.021Z,3.43
2018-02-12T01:52:46.143Z,3.41
2018-02-12T01:55:12.320Z,3.41
2018-02-12T01:57:38.548Z,3.43
2018-02-12T02:00:04.760Z,3.43
2018-02-12T02:02:30.932Z,3.40
2018-02-12T02:04:57.156Z,3.41
2018-02-12T02:07:23.412Z,3.39
2018-02-12T02:09:49.588Z,3.40
2018-02-12T02:12:15.752Z,3.37
2018-02-12T02:14:41.977Z,3.40
2018-02-12T02:17:08.145Z,3.41
2018-02-12T02:19:34.394Z,3.40
2018-02-12T02:22:01.145Z,3.37
2018-02-12T02:24:27.285Z,3.35
2018-02-12T02:26:53.489Z,3.33
2018-02-12T02:29:19.678Z,3.33
2018-02-12T02:31:45.860Z,3.27
2018-02-12T02:34:12.073Z,3.26
2018-02-12T02:36:38.244Z,3.24
2018-02-12T02:39:04.467Z,3.21
2018-02-12T02:41:30.651Z,3.21
2018-02-12T02:43:56.793Z,3.19
2018-02-12T02:46:22.923Z,3.19
2018-02-12T02:48:49.108Z,3.25
2018-02-12T02:51:15.353Z,3.27
2018-02-12T02:53:41.497Z,3.27
2018-02-12T02:56:07.744Z,3.27
2018-02-12T02:58:33.895Z,3.27
2018-02-12T03:01:00.074Z,3.25
2018-02-12T03:03:26.233Z,3.20
2018-02-12T03:05:52.423Z,3.15
2018-02-12T03:08:18.644Z,3.08
2018-02-12T03:10:44.770Z,3.06
2018-02-12T03:13:10.914Z,3.07
2018-02-12T03:15:37.118Z,3.08
2018-02-12T03:18:03.341Z,3.11
2018-02-12T03:20:29.501Z,3.09
2018-02-12T03:22:55.639Z,3.07
2018-02-12T03:25:22.467Z,3.08
2018-02-12T03:27:48.677Z,3.07
2018-02-12T03:30:14.889Z,3.06
2018-02-12T03:32:41.050Z,3.09
2018-02-12T03:35:07.249Z,3.13
2018-02-12T03:37:33.463Z,3.16
2018-02-12T03:39:59.594Z,3.22
2018-02-12T03:42:25.790Z,3.21
2018-02-12T03:44:51.926Z,3.19
2018-02-12T03:47:18.134Z,3.17
2018-02-12T03:49:44.297Z,3.16
2018-02-12T03:52:10.514Z,3.20
2018-02-12T03:54:36.676Z,3.23
2018-02-12T03:57:02.837Z,3.21
2018-02-12T03:59:29.099Z,3.20
2018-02-12T04:01:55.229Z,3.17
2018-02-12T04:04:21.383Z,3.17
2018-02-12T04:06:47.551Z,3.14
2018-02-12T04:09:13.735Z,3.09
2018-02-12T04:11:39.913Z,3.05
2018-02-12T04:14:06.101Z,3.04
2018-02-12T04:16:32.336Z,3.02
2018-02-12T04:18:58.620Z,3.01
2018-02-12T04:21:24.774Z,2.99
2018-02-12T04:23:50.980Z,2.98
2018-02-12T04:26:17.121Z,2.94
2018-02-12T04:28:43.337Z,2.90
2018-02-12T04:31:09.482Z,2.92
2018-02-12T04:33:35.631Z,2.90
2018-02-12T04:36:01.822Z,2.90
2018-02-12T04:38:28.012Z,2.90
2018-02-12T04:40:54.168Z,2.90
2018-02-12T04:43:20.332Z,2.89
2018-02-12T04:45:46.501Z,2.88
2018-02-12T04:48:12.695Z,2.81
2018-02-12T04:50:38.926Z,2.75
2018-02-12T04:53:05.120Z,2.69
2018-02-12T04:55:31.273Z,2.67
2018-02-12T04:57:57.517Z,2.66
2018-02-12T05:00:23.706Z,2.68
2018-02-12T05:02:49.866Z,2.72
2018-02-12T05:05:16.063Z,2.70
2018-02-12T05:07:42.251Z,2.71
2018-02-12T05:10:08.401Z,2.72
2018-02-12T05:12:34.591Z,2.74
2018-02-12T05:15:00.736Z,2.74
2018-02-12T05:17:26.959Z,2.76
2018-02-12T05:19:53.121Z,2.77
2018-02-12T05:22:19.341Z,2.86
2018-02-12T05:24:45.507Z,2.87
2018-02-12T05:27:11.667Z,2.89
2018-02-12T05:29:37.849Z,2.85
2018-02-12T05:32:03.991Z,2.80
2018-02-12T05:34:30.134Z,2.73
2018-02-12T05:36:56.325Z,2.71
2018-02-12T05:39:22.522Z,2.72
2018-02-12T05:41:48.669Z,2.75
2018-02-12T05:44:14.781Z,2.74
2018-02-12T05:46:41.004Z,2.75
2018-02-12T05:49:07.226Z,2.76
2018-02-12T05:51:33.454Z,2.77
2018-02-12T05:53:59.600Z,2.74
2018-02-12T05:56:25.750Z,2.68
2018-02-12T05:58:51.997Z,2.61
2018-02-12T06:01:18.190Z,2.62
2018-02-12T06:03:44.352Z,2.61
2018-02-12T06:06:10.561Z,2.63
2018-02-12T06:08:36.761Z,2.54
2018-02-12T06:11:02.932Z,2.49
2018-02-12T06:13:29.117Z,2.43
2018-02-12T06:15:55.256Z,2.38
2018-02-12T06:18:21.459Z,2.32
2018-02-12T06:20:47.628Z,2.29
2018-02-12T06:23:13.770Z,2.29
2018-02-12T06:25:39.921Z,2.28
2018-02-12T06:28:06.130Z,2.27
2018-02-12T06:30:32.287Z,2.22
2018-02-12T06:32:58.435Z,2.20
2018-02-12T06:35:24.626Z,2.20
2018-02-12T06:37:50.817Z,2.20
2018-02-12T06:40:16.982Z,2.19
2018-02-12T06:42:43.166Z,2.17
2018-02-12T06:45:09.347Z,2.17
2018-02-12T06:47:35.558Z,2.18
2018-02-12T06:50:01.746Z,2.15
2018-02-12T06:52:27.962Z,2.16
2018-02-12T06:54:54.144Z,2.18
2018-02-12T06:57:20.307Z,2.15
2018-02-12T06:59:46.532Z,2.16
2018-02-12T07:02:12.684Z,2.21
2018-02-12T07:04:38.855Z,2.21
2018-02-12T07:07:05.008Z,2.18
2018-02-12T07:09:31.183Z,2.20
2018-02-12T07:11:57.317Z,2.20
2018-02-12T07:14:23.509Z,2.22
2018-02-12T07:16:49.692Z,2.22
2018-02-12T07:19:15.908Z,2.29
2018-02-12T07:21:42.083Z,2.33
2018-02-12T07:24:08.222Z,2.42
2018-02-12T07:26:34.440Z,2.49
2018-02-12T07:29:00.685Z,2.56
2018-02-12T07:31:26.834Z,2.65
2018-02-12T07:33:52.971Z,2.68
2018-02-12T07:36:19.175Z,2.73
2018-02-12T07:38:45.360Z,2.73
2018-02-12T07:41:11.569Z,2.71
2018-02-12T07:43:37.797Z,2.72
2018-02-12T07:46:03.988Z,2.70
2018-02-12T07:48:30.218Z,2.67
2018-02-12T07:50:56.434Z,2.74
2018-02-12T07:53:22.620Z,2.77
2018-02-12T07:55:48.832Z,2.80
2018-02-12T07:58:15.179Z,2.84
2018-02-12T08:00:41.765Z,2.91
2018-02-12T08:03:08.002Z,3.00
2018-02-12T08:05:34.173Z,3.01
2018-02-12T08:08:00.657Z,3.03
2018-02-12T08:10:27.123Z,3.05
2018-02-12T08:12:53.746Z,3.15
2018-02-12T08:15:20.114Z,3.29
2018-02-12T08:17:46.349Z,3.36
2018-02-12T08:20:12.530Z,3.41
2018-02-12T08:22:38.770Z,3.53
2018-02-12T08:25:04.964Z,3.70
2018-02-12T08:27:31.373Z,3.76
2018-02-12T08:29:57.580Z,3.75
2018-02-12T08:32:23.726Z,3.81
2018-02-12T08:34:49.903Z,3.83
2018-02-12T08:37:16.196Z,3.87
2018-02-12T08:39:42.385Z,3.83
2018-02-12T08:42:08.579Z,3.75
2018-02-12T08:44:34.773Z,3.78
2018-02-12T08:47:00.981Z,3.90
2018-02-12T08:49:27.201Z,3.97
2018-02-12T08:51:53.443Z,3.92
2018-02-12T08:54:19.615Z,3.97
2018-02-12T08:56:45.812Z,4.29
2018-02-12T08:59:12.021Z,4.68
2018-02-12T09:01:38.158Z,5.35
2018-02-12T09:04:04.289Z,5.59
2018-02-12T09:06:30.448Z,5.67
2018-02-12T09:08:56.693Z,5.39
2018-02-12T09:11:22.832Z,5.06
2018-02-12T09:13:49.001Z,4.81
2018-02-12T09:16:15.983Z,4.54
2018-02-12T09:18:42.214Z,4.73
2018-02-12T09:21:08.360Z,5.22
2018-02-12T09:23:34.532Z,5.51
2018-02-12T09:26:00.704Z,5.99
2018-02-12T09:28:26.875Z,5.99
2018-02-12T09:30:53.163Z,5.78
2018-02-12T09:33:19.429Z,5.23
2018-02-12T09:35:45.792Z,5.13
2018-02-12T09:38:12.020Z,5.22
2018-02-12T09:40:38.236Z,5.46
2018-02-12T09:43:04.591Z,5.70
2018-02-12T09:45:30.798Z,5.87
2018-02-12T09:47:56.960Z,5.77
2018-02-12T09:50:23.182Z,5.91
2018-02-12T09:52:49.367Z,5.85
2018-02-12T09:55:15.549Z,5.65
2018-02-12T09:57:41.719Z,5.64
2018-02-12T10:00:07.952Z,5.67
2018-02-12T10:02:34.115Z,5.60
2018-02-12T10:05:00.280Z,5.44
2018-02-12T10:07:26.490Z,5.30
2018-02-12T10:09:52.899Z,5.35
2018-02-12T10:12:19.054Z,5.47
2018-02-12T10:14:45.252Z,5.60
2018-02-12T10:19:44.391Z,5.38
2018-02-12T10:22:10.647Z,5.28
2018-02-12T10:24:36.962Z,5.11
2018-02-12T10:27:03.217Z,5.05
2018-02-12T10:29:29.458Z,5.25
2018-02-12T10:31:55.675Z,5.28
2018-02-12T10:34:21.858Z,5.19
2018-02-12T10:36:48.088Z,5.19
2018-02-12T10:39:14.307Z,5.47
2018-02-12T10:41:40.471Z,5.70
2018-02-12T10:44:06.626Z,5.79
2018-02-12T10:46:33.525Z,5.71
2018-02-12T10:49:00.947Z,5.56
2018-02-12T10:51:27.135Z,5.42
2018-02-12T10:53:53.336Z,5.43
2018-02-12T10:56:19.484Z,5.49
2018-02-12T10:58:45.660Z,5.55
2018-02-12T11:01:11.927Z,5.68
2018-02-12T11:03:38.093Z,5.79
2018-02-12T11:06:04.309Z,5.88
2018-02-12T11:08:33.180Z,5.91
2018-02-12T11:10:59.368Z,5.69
2018-02-12T11:13:25.560Z,5.71
2018-02-12T11:15:51.761Z,5.71
2018-02-12T11:18:18.005Z,5.66
2018-02-12T11:20:44.333Z,5.61
2018-02-12T11:23:10.587Z,5.63
2018-02-12T11:25:36.761Z,5.50
2018-02-12T11:28:02.927Z,5.48
2018-02-12T11:30:29.158Z,5.57
2018-02-12T11:32:55.350Z,5.73
2018-02-12T11:35:21.518Z,5.63
2018-02-12T11:37:48.010Z,5.46
2018-02-12T11:40:15.429Z,5.35
2018-02-12T11:42:41.707Z,5.34
2018-02-12T11:45:07.970Z,5.38
2018-02-12T11:47:34.385Z,5.43
2018-02-12T11:50:00.593Z,5.44
2018-02-12T11:52:26.773Z,5.54
2018-02-12T11:54:52.965Z,5.65
2018-02-12T11:57:19.146Z,5.65
2018-02-12T11:59:45.443Z,5.50
2018-02-12T12:02:11.638Z,5.39
2018-02-12T12:04:37.795Z,5.31
2018-02-12T12:07:03.997Z,5.29
2018-02-12T12:09:30.234Z,5.34
2018-02-12T12:11:56.416Z,5.49
2018-02-12T12:14:22.785Z,5.61
2018-02-12T12:16:49.068Z,5.56
2018-02-12T12:19:15.195Z,5.56
2018-02-12T12:21:41.495Z,5.56
2018-02-12T12:24:07.731Z,5.52
2018-02-12T12:26:33.900Z,5.40
2018-02-12T12:29:00.126Z,5.33
2018-02-12T12:31:26.335Z,5.33
2018-02-12T12:33:52.552Z,5.39
2018-02-12T12:36:18.727Z,5.50
2018-02-12T12:38:44.975Z,5.61
2018-02-12T12:41:11.142Z,5.73
2018-02-12T12:43:37.362Z,5.77
2018-02-12T12:46:03.521Z,5.79
2018-02-12T12:48:29.718Z,5.84
2018-02-12T12:50:55.915Z,5.98
2018-02-12T12:53:22.096Z,6.17
2018-02-12T12:55:48.274Z,6.12
2018-02-12T12:58:14.436Z,6.21
2018-02-12T13:00:40.604Z,6.39
2018-02-12T13:03:06.816Z,6.57
2018-02-12T13:05:33.035Z,6.57
2018-02-12T13:08:00.181Z,6.54
2018-02-12T13:10:26.387Z,6.45
2018-02-12T13:12:52.558Z,6.49
2018-02-12T13:15:18.958Z,6.46
2018-02-12T13:17:45.275Z,6.54
2018-02-12T13:20:11.638Z,6.65
2018-02-12T13:22:37.783Z,6.61
2018-02-12T13:25:03.992Z,6.69
2018-02-12T13:27:30.239Z,6.77
2018-02-12T13:29:56.377Z,6.94
2018-02-12T13:32:22.577Z,6.76
2018-02-12T13:34:48.810Z,6.62
2018-02-12T13:37:15.016Z,6.51
2018-02-12T13:39:41.180Z,6.26
2018-02-12T13:42:07.464Z,6.06
2018-02-12T13:44:33.707Z,5.98
2018-02-12T13:46:59.938Z,5.91
2018-02-12T13:49:26.107Z,5.94
2018-02-12T13:51:52.370Z,6.04
2018-02-12T13:54:18.584Z,6.29
2018-02-12T13:56:44.777Z,6.44
2018-02-12T13:59:10.945Z,6.56
2018-02-12T14:01:37.160Z,6.59
2018-02-12T14:04:03.428Z,6.53
2018-02-12T14:06:29.576Z,6.59
2018-02-12T14:08:55.834Z,6.65
2018-02-12T14:11:21.998Z,6.70
2018-02-12T14:13:48.183Z,6.73
2018-02-12T14:16:14.390Z,6.70
2018-02-12T14:18:40.771Z,6.72
2018-02-12T14:21:06.982Z,6.74
2018-02-12T14:23:33.230Z,6.75
2018-02-12T14:25:59.432Z,6.78
2018-02-12T14:28:25.602Z,6.62
2018-02-12T14:30:51.791Z,6.34
2018-02-12T14:33:17.965Z,6.11
2018-02-12T14:35:44.172Z,6.00
2018-02-12T14:38:10.315Z,5.97
2018-02-12T14:40:36.492Z,5.91
2018-02-12T14:43:02.678Z,5.86
2018-02-12T14:45:28.908Z,5.90
2018-02-12T14:47:55.104Z,5.88
2018-02-12T14:50:21.319Z,5.82
2018-02-12T14:52:47.550Z,5.76
2018-02-12T14:55:13.820Z,5.81
2018-02-12T14:57:39.939Z,5.91
2018-02-12T15:00:06.150Z,5.99
2018-02-12T15:02:32.319Z,6.08
2018-02-12T15:04:58.545Z,6.13
2018-02-12T15:07:24.677Z,6.18
2018-02-12T15:09:50.828Z,6.25
2018-02-12T15:12:17.004Z,6.25
2018-02-12T15:14:43.219Z,6.18
2018-02-12T15:17:09.440Z,6.04
2018-02-12T15:19:35.617Z,5.92
2018-02-12T15:22:01.841Z,5.89
2018-02-12T15:24:28.025Z,5.89
2018-02-12T15:26:54.184Z,5.94
2018-02-12T15:29:20.388Z,6.01
2018-02-12T15:31:46.528Z,6.07
2018-02-12T15:34:12.768Z,6.13
2018-02-12T15:36:39.222Z,6.19
2018-02-12T15:39:05.399Z,6.24
2018-02-12T15:41:31.556Z,6.29
2018-02-12T15:43:57.781Z,6.23
2018-02-12T15:46:23.968Z,6.26
2018-02-12T15:48:50.125Z,6.26
2018-02-12T15:51:16.397Z,6.27
2018-02-12T15:53:42.549Z,6.26
2018-02-12T15:56:08.820Z,6.20
2018-02-12T15:58:34.956Z,6.17
2018-02-12T16:01:01.115Z,6.09
2018-02-12T16:03:27.326Z,5.98
2018-02-12T16:05:53.530Z,5.92
2018-02-12T16:08:19.687Z,5.83
2018-02-12T16:10:45.898Z,5.71
2018-02-12T16:13:12.092Z,5.59
2018-02-12T16:15:38.314Z,5.54
2018-02-12T16:18:04.541Z,5.49
2018-02-12T16:20:30.696Z,5.45
2018-02-12T16:22:56.866Z,5.39
2018-02-12T16:25:23.068Z,5.33
2018-02-12T16:27:49.246Z,5.27
2018-02-12T16:30:15.405Z,5.15
2018-02-12T16:32:41.615Z,5.07
2018-02-12T16:35:07.800Z,5.01
2018-02-12T16:37:33.954Z,4.92
2018-02-12T16:40:03.764Z,4.82
2018-02-12T16:42:31.237Z,4.74
2018-02-12T16:44:57.462Z,4.64
2018-02-12T16:47:23.655Z,4.58
2018-02-12T16:49:49.809Z,4.46
2018-02-12T16:52:16.067Z,4.41
2018-02-12T16:54:42.322Z,4.32
2018-02-12T16:57:08.478Z,4.22
2018-02-12T16:59:34.643Z,4.11
2018-02-12T17:02:00.877Z,4.03
2018-02-12T17:04:27.119Z,3.95
2018-02-12T17:06:53.318Z,3.86
2018-02-12T17:09:19.477Z,3.76
2018-02-12T17:11:45.679Z,3.65
2018-02-12T17:14:11.820Z,3.53
2018-02-12T17:16:38.051Z,3.42
2018-02-12T17:19:04.202Z,3.33
2018-02-12T17:21:30.409Z,3.24
2018-02-12T17:23:56.583Z,3.17
2018-02-12T17:26:22.811Z,3.08
2018-02-12T17:28:48.999Z,3.00
2018-02-12T17:31:15.205Z,2.91
2018-02-12T17:33:41.390Z,2.85
2018-02-12T17:36:07.621Z,2.80
2018-02-12T17:38:33.823Z,2.72
2018-02-12T17:41:00.015Z,2.64
2018-02-12T17:43:26.271Z,2.59
2018-02-12T17:45:52.504Z,2.52
2018-02-12T17:48:18.718Z,2.45
2018-02-12T17:50:44.971Z,2.41
2018-02-12T17:53:11.193Z,2.39
2018-02-12T17:55:37.314Z,2.35
2018-02-12T17:58:03.540Z,2.31
2018-02-12T18:00:29.715Z,2.29
2018-02-12T18:02:55.918Z,2.24
2018-02-12T18:05:22.223Z,2.20
2018-02-12T18:07:48.426Z,2.18
2018-02-12T18:10:14.590Z,2.14
2018-02-12T18:12:41.763Z,2.12
2018-02-12T18:15:07.946Z,2.10
2018-02-12T18:17:34.199Z,2.06
2018-02-12T18:20:00.342Z,2.02
2018-02-12T18:22:26.471Z,1.95
2018-02-12T18:24:52.707Z,1.92
2018-02-12T18:27:18.890Z,1.87
2018-02-12T18:29:45.075Z,1.85
2018-02-12T18:32:11.241Z,1.81
2018-02-12T18:34:37.480Z,1.80
2018-02-12T18:37:03.666Z,1.81
2018-02-12T18:39:29.852Z,1.80
2018-02-12T18:41:56.055Z,1.84
2018-02-12T18:44:22.255Z,1.84
2018-02-12T18:46:48.482Z,1.83
2018-02-12T18:49:14.622Z,1.82
2018-02-12T18:51:40.840Z,1.78
2018-02-12T18:54:07.176Z,1.79
2018-02-12T18:56:33.345Z,1.77
2018-02-12T18:58:59.570Z,1.81
2018-02-12T19:01:25.774Z,1.82
2018-02-12T19:03:51.955Z,1.81
2018-02-12T19:06:18.126Z,1.81
2018-02-12T19:08:44.260Z,1.82
2018-02-12T19:11:10.424Z,1.83
2018-02-12T19:13:36.626Z,1.85
2018-02-12T19:16:02.817Z,1.83
2018-02-12T19:18:29.018Z,1.84
2018-02-12T19:20:55.169Z,1.84
2018-02-12T19:23:21.383Z,1.83
2018-02-12T19:25:47.562Z,1.80
2018-02-12T19:28:13.769Z,1.77
2018-02-12T19:30:40.012Z,1.74
2018-02-12T19:33:06.242Z,1.71
2018-02-12T19:35:32.398Z,1.71
2018-02-12T19:37:58.606Z,1.73
2018-02-12T19:40:24.812Z,1.73
2018-02-12T19:42:50.999Z,1.70
2018-02-12T19:45:17.247Z,1.67
2018-02-12T19:47:43.513Z,1.64
2018-02-12T19:50:11.024Z,1.60
2018-02-12T19:52:37.366Z,1.59
2018-02-12T19:55:03.698Z,1.58
2018-02-12T19:57:29.836Z,1.60
2018-02-12T19:59:56.017Z,1.59
2018-02-12T20:02:22.182Z,1.62
2018-02-12T20:04:48.473Z,1.65
2018-02-12T20:07:14.677Z,1.67
2018-02-12T20:09:40.935Z,1.68
2018-02-12T20:12:07.207Z,1.68
2018-02-12T20:14:33.476Z,1.74
2018-02-12T20:16:59.852Z,1.76
2018-02-12T20:19:26.027Z,1.82
2018-02-12T20:21:52.188Z,1.84
2018-02-12T20:24:18.437Z,1.87
2018-02-12T20:26:44.616Z,1.88
2018-02-12T20:29:10.772Z,1.90
2018-02-12T20:31:36.978Z,1.90
2018-02-12T20:34:03.237Z,1.91
2018-02-12T20:36:29.405Z,1.94
2018-02-12T20:38:55.529Z,1.93
2018-02-12T20:41:21.717Z,1.95
2018-02-12T20:43:47.924Z,1.94
2018-02-12T20:46:14.081Z,1.94
2018-02-12T20:48:40.293Z,1.93
2018-02-12T20:51:06.545Z,1.92
2018-02-12T20:53:32.688Z,1.94
2018-02-12T20:55:59.097Z,1.93
2018-02-12T20:58:25.249Z,1.91
2018-02-12T21:00:51.380Z,1.93
2018-02-12T21:03:17.554Z,1.90
2018-02-12T21:05:43.766Z,1.90
2018-02-12T21:08:10.003Z,1.92
2018-02-12T21:10:36.165Z,1.94
2018-02-12T21:13:02.342Z,1.93
2018-02-12T21:15:28.565Z,1.93
2018-02-12T21:17:54.756Z,1.93
2018-02-12T21:20:20.909Z,1.93
2018-02-12T21:22:47.096Z,1.95
2018-02-12T21:25:13.317Z,1.95
2018-02-12T21:27:39.508Z,1.94
2018-02-12T21:30:05.701Z,1.90
2018-02-12T21:32:31.864Z,1.90
2018-02-12T21:34:58.079Z,1.88
2018-02-12T21:37:24.261Z,1.87
2018-02-12T21:39:50.486Z,1.86
2018-02-12T21:42:16.666Z,1.83
2018-02-12T21:44:42.868Z,1.80
2018-02-12T21:47:09.066Z,1.79
2018-02-12T21:49:35.229Z,1.79
2018-02-12T21:52:01.461Z,1.77
2018-02-12T21:54:27.693Z,1.76
2018-02-12T21:56:53.864Z,1.73
2018-02-12T21:59:20.065Z,1.73
2018-02-12T22:01:46.346Z,1.73
2018-02-12T22:04:12.580Z,1.72
2018-02-12T22:06:38.802Z,1.71
2018-02-12T22:09:05.037Z,1.66
2018-02-12T22:11:31.220Z,1.64
2018-02-12T22:13:57.359Z,1.62
2018-02-12T22:16:23.586Z,1.60
2018-02-12T22:18:49.754Z,1.59
2018-02-12T22:21:15.918Z,1.62
2018-02-12T22:23:42.415Z,1.65
2018-02-12T22:26:08.636Z,1.64
2018-02-12T22:28:34.807Z,1.61
2018-02-12T22:31:00.985Z,1.61
2018-02-12T22:33:27.220Z,1.57
2018-02-12T22:35:53.444Z,1.55
2018-02-12T22:38:19.591Z,1.52
2018-02-12T22:40:45.727Z,1.50
2018-02-12T22:43:11.933Z,1.51
2018-02-12T22:45:38.168Z,1.50
2018-02-12T22:48:04.405Z,1.48
2018-02-12T22:50:30.621Z,1.45
2018-02-12T22:52:56.766Z,1.42
2018-02-12T22:55:23.024Z,1.37
2018-02-12T22:57:49.184Z,1.33
2018-02-12T23:00:15.387Z,1.28
2018-02-12T23:02:41.607Z,1.24
2018-02-12T23:05:07.849Z,1.22
2018-02-12T23:07:33.989Z,1.18
2018-02-12T23:10:00.168Z,1.17
2018-02-12T23:12:26.340Z,1.13
2018-02-12T23:14:52.555Z,1.11
2018-02-12T23:17:18.799Z,1.12
2018-02-12T23:19:44.946Z,1.14
2018-02-12T23:22:11.101Z,1.16
2018-02-12T23:24:37.322Z,1.17
2018-02-12T23:27:03.473Z,1.18
2018-02-12T23:29:29.626Z,1.17
2018-02-12T23:31:55.820Z,1.15
2018-02-12T23:34:21.952Z,1.16
2018-02-12T23:36:48.221Z,1.14
2018-02-12T23:39:14.399Z,1.14
2018-02-12T23:41:40.542Z,1.14
2018-02-12T23:44:06.679Z,1.17
2018-02-12T23:46:32.903Z,1.20
2018-02-12T23:48:59.031Z,1.23
2018-02-12T23:51:25.220Z,1.25
2018-02-12T23:53:51.382Z,1.27
2018-02-12T23:56:17.557Z,1.28
2018-02-12T23:58:43.713Z,1.28
